createdAt,value
2022-09-25T00:01:19.920Z,100159.09
2022-09-25T00:03:49.460Z,100157.53
2022-09-25T00:06:20.766Z,100154.84
2022-09-25T00:08:49.442Z,100155.59
2022-09-25T00:11:19.895Z,100156.72
2022-09-25T00:13:48.637Z,100166.00
2022-09-25T00:16:21.518Z,100159.78
2022-09-25T00:19:08.672Z,100165.22
2022-09-25T00:21:38.120Z,100167.53
2022-09-25T00:24:09.668Z,100164.44
2022-09-25T00:26:41.765Z,100167.88
2022-09-25T00:29:16.424Z,100169.81
2022-09-25T00:31:44.358Z,100165.56
2022-09-25T00:34:12.415Z,100160.91
2022-09-25T00:36:40.125Z,100161.72
2022-09-25T00:39:07.711Z,100166.75
2022-09-25T00:41:35.603Z,100153.22
2022-09-25T00:44:42.132Z,100158.97
2022-09-25T00:47:13.592Z,100162.06
2022-09-25T00:49:41.769Z,100162.81
2022-09-25T00:52:15.779Z,100158.88
2022-09-25T00:54:55.853Z,100153.34
2022-09-25T00:57:27.738Z,100151.69
2022-09-25T01:00:11.590Z,100153.84
2022-09-25T01:02:53.447Z,100149.88
2022-09-25T01:05:30.980Z,100144.41
2022-09-25T01:08:02.045Z,100141.25
2022-09-25T01:10:30.766Z,100149.28
2022-09-25T01:13:00.223Z,100151.91
2022-09-25T01:15:52.148Z,100148.75
2022-09-25T01:18:48.473Z,100136.69
2022-09-25T01:21:18.728Z,100140.88
2022-09-25T01:23:49.239Z,100133.94
2022-09-25T01:26:22.499Z,100133.50
2022-09-25T01:28:59.642Z,100124.63
2022-09-25T01:31:42.415Z,100125.84
2022-09-25T01:34:21.368Z,100118.94
2022-09-25T01:37:30.055Z,100124.00
2022-09-25T01:40:38.942Z,100117.09
2022-09-25T01:43:21.490Z,100110.16
2022-09-25T01:45:54.195Z,100124.91
2022-09-25T01:48:27.686Z,100120.69
2022-09-25T01:51:03.881Z,100116.50
2022-09-25T01:53:47.067Z,100122.75
2022-09-25T01:57:06.494Z,100121.25
2022-09-25T01:59:47.293Z,100123.59
2022-09-25T02:02:21.347Z,100133.59
2022-09-25T02:05:07.884Z,100121.13
2022-09-25T02:07:42.237Z,100120.97
2022-09-25T02:10:27.713Z,100107.03
2022-09-25T02:13:10.965Z,100112.41
2022-09-25T02:15:52.245Z,100106.22
2022-09-25T02:18:40.327Z,100108.13
2022-09-25T02:21:25.496Z,100101.63
2022-09-25T02:24:06.544Z,100101.69
2022-09-25T02:26:35.693Z,100096.38
2022-09-25T02:29:03.833Z,100101.03
2022-09-25T02:31:43.450Z,100099.94
2022-09-25T02:34:14.978Z,100107.31
2022-09-25T02:36:44.855Z,100101.19
2022-09-25T02:39:18.813Z,100086.91
2022-09-25T02:42:07.922Z,100095.81
2022-09-25T02:45:35.953Z,100091.25
2022-09-25T02:48:23.069Z,100102.06
2022-09-25T02:51:11.413Z,100100.47
2022-09-25T02:54:08.649Z,100096.56
2022-09-25T02:57:06.429Z,100106.59
2022-09-25T02:59:43.741Z,100107.31
2022-09-25T03:02:13.561Z,100099.91
2022-09-25T03:04:42.413Z,100103.31
2022-09-25T03:07:10.225Z,100111.78
2022-09-25T03:09:42.282Z,100110.63
2022-09-25T03:12:10.067Z,100106.72
2022-09-25T03:14:37.527Z,100098.22
2022-09-25T03:17:07.779Z,100095.13
2022-09-25T03:19:35.442Z,100090.47
2022-09-25T03:22:03.832Z,100090.78
2022-09-25T03:24:32.114Z,100088.78
2022-09-25T03:26:59.571Z,100091.72
2022-09-25T03:29:27.368Z,100092.78
2022-09-25T03:31:55.522Z,100091.59
2022-09-25T03:34:23.115Z,100099.19
2022-09-25T03:36:50.545Z,100105.69
2022-09-25T03:39:18.281Z,100104.44
2022-09-25T03:41:46.439Z,100109.31
2022-09-25T03:44:14.043Z,100107.69
2022-09-25T03:46:41.780Z,100109.13
2022-09-25T03:49:10.844Z,100107.47
2022-09-25T03:51:39.037Z,100104.22
2022-09-25T03:54:06.952Z,100111.81
2022-09-25T03:56:34.611Z,100106.34
2022-09-25T03:59:02.122Z,100102.03
2022-09-25T04:01:30.180Z,100094.66
2022-09-25T04:03:58.164Z,100093.88
2022-09-25T04:06:27.139Z,100099.69
2022-09-25T04:08:55.340Z,100097.00
2022-09-25T04:11:24.579Z,100086.16
2022-09-25T04:13:52.836Z,100089.22
2022-09-25T04:16:21.414Z,100082.38
2022-09-25T04:18:50.701Z,100081.75
2022-09-25T04:21:18.221Z,100092.31
2022-09-25T04:24:06.006Z,100099.78
2022-09-25T04:26:34.633Z,100094.47
2022-09-25T04:29:03.698Z,100089.59
2022-09-25T04:31:32.661Z,100088.94
2022-09-25T04:34:02.215Z,100085.97
2022-09-25T04:36:29.935Z,100092.63
2022-09-25T04:38:57.727Z,100078.03
2022-09-25T04:41:25.253Z,100080.84
2022-09-25T04:43:52.982Z,100079.34
2022-09-25T04:46:22.654Z,100079.03
2022-09-25T04:48:50.761Z,100083.75
2022-09-25T04:51:18.667Z,100083.78
2022-09-25T04:53:46.829Z,100085.34
2022-09-25T04:56:16.281Z,100087.31
2022-09-25T04:58:50.251Z,100085.41
2022-09-25T05:01:20.540Z,100082.72
2022-09-25T05:03:53.724Z,100080.84
2022-09-25T05:06:23.316Z,100089.38
2022-09-25T05:08:51.147Z,100102.56
2022-09-25T05:11:19.081Z,100099.50
2022-09-25T05:13:51.796Z,100101.09
2022-09-25T05:16:20.475Z,100094.19
2022-09-25T05:18:48.154Z,100099.22
2022-09-25T05:21:15.633Z,100107.31
2022-09-25T05:23:43.843Z,100109.59
2022-09-25T05:26:11.539Z,100118.47
2022-09-25T05:28:39.579Z,100111.94
2022-09-25T05:31:08.280Z,100120.44
2022-09-25T05:33:36.025Z,100115.81
2022-09-25T05:36:08.046Z,100118.16
2022-09-25T05:38:39.101Z,100129.00
2022-09-25T05:41:11.064Z,100129.81
2022-09-25T05:43:42.997Z,100134.84
2022-09-25T05:46:11.776Z,100132.56
2022-09-25T05:48:40.029Z,100137.59
2022-09-25T05:51:07.938Z,100131.09
2022-09-25T05:53:35.435Z,100123.44
2022-09-25T05:56:05.540Z,100118.53
2022-09-25T05:58:34.946Z,100111.63
2022-09-25T06:01:04.831Z,100111.22
2022-09-25T06:03:32.848Z,100107.69
2022-09-25T06:06:01.474Z,100104.56
2022-09-25T06:08:33.021Z,100101.47
2022-09-25T06:11:02.474Z,100102.22
2022-09-25T06:13:33.134Z,100103.00
2022-09-25T06:16:02.317Z,100105.25
2022-09-25T06:18:30.271Z,100109.13
2022-09-25T06:21:05.095Z,100114.53
2022-09-25T06:23:33.309Z,100112.97
2022-09-25T06:26:03.812Z,100124.91
2022-09-25T06:28:32.179Z,100121.81
2022-09-25T06:31:06.006Z,100122.97
2022-09-25T06:33:33.668Z,100131.09
2022-09-25T06:36:02.265Z,100136.88
2022-09-25T06:38:29.903Z,100136.44
2022-09-25T06:41:00.617Z,100126.38
2022-09-25T06:43:29.324Z,100122.09
2022-09-25T06:46:02.574Z,100122.09
2022-09-25T06:48:31.012Z,100123.25
2022-09-25T06:51:00.764Z,100122.84
2022-09-25T06:53:28.367Z,100128.25
2022-09-25T06:56:02.858Z,100132.91
2022-09-25T06:58:30.858Z,100134.06
2022-09-25T07:00:59.238Z,100133.69
2022-09-25T07:03:45.186Z,100132.56
2022-09-25T07:06:15.318Z,100138.41
2022-09-25T07:08:48.137Z,100133.03
2022-09-25T07:11:22.509Z,100130.78
2022-09-25T07:13:57.313Z,100135.47
2022-09-25T07:16:30.066Z,100127.78
2022-09-25T07:19:00.770Z,100134.81
2022-09-25T07:21:30.791Z,100127.13
2022-09-25T07:23:59.019Z,100138.34
2022-09-25T07:26:33.933Z,100139.56
2022-09-25T07:29:06.562Z,100148.88
2022-09-25T07:31:37.936Z,100152.75
2022-09-25T07:34:09.629Z,100146.59
2022-09-25T07:36:38.800Z,100150.13
2022-09-25T07:39:07.542Z,100145.91
2022-09-25T07:41:37.155Z,100132.00
2022-09-25T07:44:27.915Z,100131.19
2022-09-25T07:46:55.165Z,100137.63
2022-09-25T07:49:22.708Z,100137.16
2022-09-25T07:51:50.202Z,100150.94
2022-09-25T07:54:18.090Z,100148.56
2022-09-25T07:56:45.568Z,100138.50
2022-09-25T07:59:13.274Z,100150.16
2022-09-25T08:01:44.699Z,100138.69
2022-09-25T08:04:14.018Z,100130.66
2022-09-25T08:06:41.816Z,100144.59
2022-09-25T08:09:12.179Z,100139.59
2022-09-25T08:11:39.921Z,100139.31
2022-09-25T08:14:07.849Z,100138.22
2022-09-25T08:16:35.532Z,100140.56
2022-09-25T08:19:03.874Z,100146.84
2022-09-25T08:21:31.671Z,100149.97
2022-09-25T08:23:59.165Z,100153.50
2022-09-25T08:26:28.145Z,100155.84
2022-09-25T08:28:56.922Z,100142.31
2022-09-25T08:31:24.530Z,100146.97
2022-09-25T08:33:52.151Z,100143.06
2022-09-25T08:36:21.309Z,100140.75
2022-09-25T08:38:48.879Z,100138.81
2022-09-25T08:41:51.056Z,100145.41
2022-09-25T08:44:36.807Z,100150.41
2022-09-25T08:47:37.606Z,100155.06
2022-09-25T08:50:09.229Z,100153.53
2022-09-25T08:52:41.239Z,100148.50
2022-09-25T08:56:01.683Z,100151.19
2022-09-25T08:58:34.006Z,100158.56
2022-09-25T09:01:06.653Z,100141.47
2022-09-25T09:04:05.599Z,100144.56
2022-09-25T09:06:37.339Z,100139.88
2022-09-25T09:09:29.906Z,100128.13
2022-09-25T09:12:25.747Z,100131.56
2022-09-25T09:15:06.857Z,100122.59
2022-09-25T09:17:42.535Z,100127.25
2022-09-25T09:20:30.013Z,100114.81
2022-09-25T09:22:58.927Z,100117.56
2022-09-25T09:25:40.572Z,100115.56
2022-09-25T09:28:54.516Z,100110.09
2022-09-25T09:31:46.910Z,100107.72
2022-09-25T09:35:04.875Z,100098.06
2022-09-25T09:37:50.643Z,100098.03
2022-09-25T09:40:43.947Z,100095.25
2022-09-25T09:43:43.179Z,100090.19
2022-09-25T09:46:41.973Z,100089.31
2022-09-25T09:49:51.140Z,100084.16
2022-09-25T09:52:34.305Z,100075.91
2022-09-25T09:55:23.119Z,100077.00
2022-09-25T09:57:55.159Z,100078.13
2022-09-25T10:00:24.440Z,100085.44
2022-09-25T10:03:17.318Z,100081.44
2022-09-25T10:05:57.101Z,100079.91
2022-09-25T10:08:25.418Z,100082.28
2022-09-25T10:10:55.029Z,100085.38
2022-09-25T10:13:38.283Z,100095.41
2022-09-25T10:16:11.460Z,100092.19
2022-09-25T10:18:48.453Z,100101.44
2022-09-25T10:21:25.498Z,100095.19
2022-09-25T10:23:56.113Z,100093.19
2022-09-25T10:26:38.977Z,100095.09
2022-09-25T10:29:23.079Z,100083.06
2022-09-25T10:32:00.341Z,100089.59
2022-09-25T10:34:29.741Z,100093.84
2022-09-25T10:36:58.305Z,100089.16
2022-09-25T10:39:49.170Z,100092.59
2022-09-25T10:42:41.569Z,100080.91
2022-09-25T10:45:36.065Z,100074.69
2022-09-25T10:48:56.324Z,100081.31
2022-09-25T10:51:25.369Z,100077.91
2022-09-25T10:54:13.944Z,100072.47
2022-09-25T10:56:42.465Z,100063.94
2022-09-25T10:59:19.758Z,100056.38
2022-09-25T11:01:51.736Z,100065.03
2022-09-25T11:04:32.069Z,100060.75
2022-09-25T11:07:07.903Z,100058.94
2022-09-25T11:09:43.775Z,100047.94
2022-09-25T11:12:38.740Z,100047.00
2022-09-25T11:15:17.499Z,100046.06
2022-09-25T11:17:46.958Z,100045.19
2022-09-25T11:20:27.847Z,100050.56
2022-09-25T11:23:29.341Z,100049.78
2022-09-25T11:26:14.236Z,100057.91
2022-09-25T11:29:01.770Z,100053.59
2022-09-25T11:31:42.777Z,100038.09
2022-09-25T11:34:58.307Z,100038.91
2022-09-25T11:37:58.514Z,100029.53
2022-09-25T11:41:16.070Z,100036.53
2022-09-25T11:44:13.011Z,100033.41
2022-09-25T11:46:54.261Z,100029.50
2022-09-25T11:49:28.590Z,100022.44
2022-09-25T11:52:42.732Z,100004.47
2022-09-25T11:55:52.397Z,100013.06
2022-09-25T11:58:33.542Z,100006.84
2022-09-25T12:01:25.931Z,100013.91
2022-09-25T12:04:17.757Z,100007.72
2022-09-25T12:07:15.838Z,100001.53
2022-09-25T12:10:27.235Z,99998.47
2022-09-25T12:13:04.347Z,99993.50
2022-09-25T12:16:14.457Z,99993.16
2022-09-25T12:19:10.810Z,99988.53
2022-09-25T12:22:11.497Z,99984.75
2022-09-25T12:24:44.601Z,99980.94
2022-09-25T12:27:33.072Z,99985.69
2022-09-25T12:30:21.353Z,99979.94
2022-09-25T12:33:04.336Z,99974.97
2022-09-25T12:35:58.102Z,99980.81
2022-09-25T12:38:48.516Z,99975.44
2022-09-25T12:41:53.156Z,99972.00
2022-09-25T12:44:38.145Z,99974.41
2022-09-25T12:47:33.222Z,99970.97
2022-09-25T12:50:29.599Z,99956.66
2022-09-25T12:53:17.101Z,99949.66
2022-09-25T12:55:53.137Z,99952.03
2022-09-25T12:58:57.548Z,99948.88
2022-09-25T13:01:32.311Z,99943.03
2022-09-25T13:04:37.840Z,99941.41
2022-09-25T13:07:33.581Z,99939.44
2022-09-25T13:10:13.615Z,99942.97
2022-09-25T13:12:41.380Z,99933.19
2022-09-25T13:15:23.275Z,99924.59
2022-09-25T13:17:51.125Z,99921.09
2022-09-25T13:20:31.344Z,99923.06
2022-09-25T13:23:37.192Z,99915.72
2022-09-25T13:26:18.497Z,99909.94
2022-09-25T13:29:28.096Z,99903.75
2022-09-25T13:32:23.296Z,99898.75
2022-09-25T13:35:03.442Z,99901.56
2022-09-25T13:37:38.044Z,99896.50
2022-09-25T13:40:46.192Z,99897.72
2022-09-25T13:43:30.524Z,99898.63
2022-09-25T13:46:25.039Z,99897.13
2022-09-25T13:48:55.481Z,99897.19
2022-09-25T13:51:22.984Z,99887.13
2022-09-25T13:56:55.066Z,99884.91
2022-09-25T13:59:37.037Z,99886.50
2022-09-25T14:02:37.183Z,99875.66
2022-09-25T14:05:05.927Z,99880.41
2022-09-25T14:07:34.983Z,99884.34
2022-09-25T14:10:03.294Z,99877.78
2022-09-25T14:12:42.971Z,99875.88
2022-09-25T14:15:22.682Z,99872.44
2022-09-25T14:17:54.679Z,99866.69
2022-09-25T14:20:38.540Z,99857.41
2022-09-25T14:23:27.285Z,99862.88
2022-09-25T14:26:08.766Z,99865.25
2022-09-25T14:28:45.852Z,99862.94
2022-09-25T14:31:34.938Z,99871.50
2022-09-25T14:34:39.589Z,99876.19
2022-09-25T14:38:12.496Z,99880.13
2022-09-25T14:41:05.027Z,99873.22
2022-09-25T14:43:41.834Z,99884.88
2022-09-25T14:46:18.789Z,99883.31
2022-09-25T14:49:08.125Z,99888.75
2022-09-25T14:51:41.633Z,99875.22
2022-09-25T14:54:17.308Z,99877.16
2022-09-25T14:56:50.353Z,99874.09
2022-09-25T14:59:37.721Z,99864.78
2022-09-25T15:02:12.067Z,99882.72
2022-09-25T15:04:39.877Z,99878.06
2022-09-25T15:07:23.242Z,99886.22
2022-09-25T15:09:55.561Z,99879.25
2022-09-25T15:12:31.468Z,99885.88
2022-09-25T15:15:13.437Z,99868.75
2022-09-25T15:17:54.743Z,99872.63
2022-09-25T15:20:26.763Z,99868.34
2022-09-25T15:23:16.242Z,99868.00
2022-09-25T15:25:55.211Z,99864.94
2022-09-25T15:28:26.295Z,99864.56
2022-09-25T15:31:06.715Z,99866.13
2022-09-25T15:33:37.796Z,99870.88
2022-09-25T15:36:23.096Z,99869.72
2022-09-25T15:39:02.426Z,99860.06
2022-09-25T15:41:30.374Z,99862.81
2022-09-25T15:44:18.391Z,99864.41
2022-09-25T15:46:59.076Z,99856.69
2022-09-25T15:49:55.953Z,99862.19
2022-09-25T15:52:32.519Z,99859.91
2022-09-25T15:55:22.517Z,99864.97
2022-09-25T15:57:53.286Z,99859.16
2022-09-25T16:00:44.763Z,99865.44
2022-09-25T16:03:42.893Z,99861.56
2022-09-25T16:06:17.484Z,99861.59
2022-09-25T16:08:45.692Z,99861.63
2022-09-25T16:11:23.636Z,99860.88
2022-09-25T16:14:12.379Z,99857.00
2022-09-25T16:16:49.431Z,99854.31
2022-09-25T16:19:27.075Z,99853.97
2022-09-25T16:21:55.309Z,99857.09
2022-09-25T16:24:31.567Z,99854.75
2022-09-25T16:27:02.849Z,99854.75
2022-09-25T16:29:39.206Z,99850.09
2022-09-25T16:32:21.058Z,99847.03
2022-09-25T16:35:01.232Z,99847.44
2022-09-25T16:37:35.687Z,99845.09
2022-09-25T16:40:38.780Z,99855.63
2022-09-25T16:43:25.942Z,99851.34
2022-09-25T16:46:03.098Z,99857.16
2022-09-25T16:48:39.488Z,99850.31
2022-09-25T16:51:32.332Z,99857.19
2022-09-25T16:54:00.571Z,99859.28
2022-09-25T16:56:31.620Z,99853.91
2022-09-25T16:58:59.843Z,99845.41
2022-09-25T17:01:28.803Z,99844.19
2022-09-25T17:04:00.018Z,99846.91
2022-09-25T17:06:30.649Z,99865.50
2022-09-25T17:08:59.970Z,99859.22
2022-09-25T17:11:27.656Z,99862.25
2022-09-25T17:13:56.129Z,99854.34
2022-09-25T17:16:23.972Z,99851.84
2022-09-25T17:18:51.608Z,99852.91
2022-09-25T17:21:20.173Z,99846.66
2022-09-25T17:23:47.979Z,99855.63
2022-09-25T17:26:21.190Z,99855.13
2022-09-25T17:28:52.123Z,99860.91
2022-09-25T17:31:22.221Z,99857.78
2022-09-25T17:33:50.599Z,99868.53
2022-09-25T17:36:18.363Z,99859.94
2022-09-25T17:38:46.026Z,99865.31
2022-09-25T17:41:35.213Z,99860.72
2022-09-25T17:44:04.311Z,99860.78
2022-09-25T17:46:36.172Z,99864.75
2022-09-25T17:49:04.524Z,99855.50
2022-09-25T17:51:32.297Z,99863.69
2022-09-25T17:54:02.721Z,99859.50
2022-09-25T17:56:30.269Z,99864.13
2022-09-25T17:58:58.181Z,99864.13
2022-09-25T18:01:38.378Z,99866.47
2022-09-25T18:04:25.303Z,99867.28
2022-09-25T18:06:53.578Z,99870.41
2022-09-25T18:09:21.438Z,99866.47
2022-09-25T18:11:48.985Z,99868.69
2022-09-25T18:14:17.391Z,99871.63
2022-09-25T18:16:45.409Z,99865.97
2022-09-25T18:19:37.727Z,99866.53
2022-09-25T18:22:18.910Z,99874.94
2022-09-25T18:24:57.397Z,99890.41
2022-09-25T18:27:32.821Z,99878.03
2022-09-25T18:30:00.685Z,99883.50
2022-09-25T18:32:29.365Z,99875.31
2022-09-25T18:34:57.184Z,99866.69
2022-09-25T18:37:24.817Z,99861.56
2022-09-25T18:39:52.790Z,99858.41
2022-09-25T18:42:20.454Z,99860.38
2022-09-25T18:44:48.771Z,99857.66
2022-09-25T18:47:16.751Z,99856.88
2022-09-25T18:49:44.381Z,99862.31
2022-09-25T18:52:11.998Z,99860.78
2022-09-25T18:54:42.241Z,99860.78
2022-09-25T18:57:12.077Z,99863.09
2022-09-25T18:59:40.962Z,99857.66
2022-09-25T19:02:21.490Z,99854.94
2022-09-25T19:04:51.194Z,99852.22
2022-09-25T19:07:19.764Z,99850.31
2022-09-25T19:09:47.328Z,99851.50
2022-09-25T19:12:17.106Z,99843.75
2022-09-25T19:14:46.074Z,99848.47
2022-09-25T19:17:18.339Z,99848.50
2022-09-25T19:19:46.034Z,99835.00
2022-09-25T19:22:19.805Z,99833.53
2022-09-25T19:24:48.818Z,99838.59
2022-09-25T19:27:18.662Z,99830.75
2022-09-25T19:29:46.990Z,99829.69
2022-09-25T19:32:17.440Z,99825.09
2022-09-25T19:34:45.631Z,99824.31
2022-09-25T19:37:15.306Z,99827.00
2022-09-25T19:40:04.773Z,99825.94
2022-09-25T19:42:33.836Z,99813.91
2022-09-25T19:45:01.878Z,99817.00
2022-09-25T19:47:29.625Z,99820.50
2022-09-25T19:49:57.541Z,99825.97
2022-09-25T19:52:25.417Z,99821.31
2022-09-25T19:54:52.913Z,99819.72
2022-09-25T19:57:20.501Z,99824.41
2022-09-25T19:59:49.335Z,99824.00
2022-09-25T20:02:17.127Z,99824.31
2022-09-25T20:04:45.052Z,99817.34
2022-09-25T20:07:16.602Z,99820.50
2022-09-25T20:09:44.709Z,99823.13
2022-09-25T20:12:12.520Z,99817.72
2022-09-25T20:14:40.700Z,99815.06
2022-09-25T20:17:10.011Z,99824.31
2022-09-25T20:19:38.396Z,99827.41
2022-09-25T20:22:06.224Z,99821.59
2022-09-25T20:24:33.839Z,99821.19
2022-09-25T20:27:01.822Z,99815.34
2022-09-25T20:29:29.818Z,99807.97
2022-09-25T20:31:57.415Z,99805.25
2022-09-25T20:34:25.200Z,99797.09
2022-09-25T20:36:52.821Z,99801.41
2022-09-25T20:39:21.684Z,99793.66
2022-09-25T20:41:50.171Z,99794.78
2022-09-25T20:44:19.777Z,99795.50
2022-09-25T20:46:48.881Z,99785.50
2022-09-25T20:49:20.050Z,99775.47
2022-09-25T20:51:47.649Z,99779.34
2022-09-25T20:54:15.901Z,99783.28
2022-09-25T20:56:44.858Z,99769.38
2022-09-25T20:59:12.716Z,99771.28
2022-09-25T21:01:41.892Z,99772.41
2022-09-25T21:04:10.741Z,99776.19
2022-09-25T21:06:41.418Z,99774.66
2022-09-25T21:09:24.041Z,99765.78
2022-09-25T21:11:55.478Z,99773.91
2022-09-25T21:14:28.026Z,99763.16
2022-09-25T21:16:56.440Z,99761.63
2022-09-25T21:19:24.562Z,99764.28
2022-09-25T21:21:52.235Z,99757.66
2022-09-25T21:24:21.929Z,99757.75
2022-09-25T21:26:50.727Z,99760.13
2022-09-25T21:29:19.412Z,99759.34
2022-09-25T21:31:50.410Z,99751.59
2022-09-25T21:34:19.989Z,99753.94
2022-09-25T21:36:48.358Z,99743.00
2022-09-25T21:39:16.483Z,99740.63
2022-09-25T21:41:45.031Z,99736.84
2022-09-25T21:44:16.198Z,99727.59
2022-09-25T21:46:44.190Z,99731.44
2022-09-25T21:49:18.828Z,99730.66
2022-09-25T21:51:48.303Z,99730.63
2022-09-25T21:54:17.137Z,99719.03
2022-09-25T21:56:45.683Z,99715.94
2022-09-25T21:59:13.486Z,99712.81
2022-09-25T22:01:42.548Z,99711.09
2022-09-25T22:04:14.222Z,99707.84
2022-09-25T22:06:46.214Z,99701.84
2022-09-25T22:09:24.255Z,99696.69
2022-09-25T22:11:52.328Z,99698.09
2022-09-25T22:14:21.855Z,99699.56
2022-09-25T22:16:51.518Z,99697.19
2022-09-25T22:19:24.789Z,99693.28
2022-09-25T22:21:55.423Z,99698.69
2022-09-25T22:24:23.196Z,99701.00
2022-09-25T22:26:52.632Z,99697.09
2022-09-25T22:29:21.380Z,99701.34
2022-09-25T22:31:49.309Z,99702.53
2022-09-25T22:34:22.575Z,99702.53
2022-09-25T22:36:56.248Z,99695.56
2022-09-25T22:39:26.604Z,99693.25
2022-09-25T22:41:55.746Z,99697.13
2022-09-25T22:44:23.826Z,99691.69
2022-09-25T22:46:51.838Z,99688.22
2022-09-25T22:49:19.767Z,99692.09
2022-09-25T22:51:47.217Z,99694.81
2022-09-25T22:54:15.425Z,99690.19
2022-09-25T22:56:44.046Z,99688.97
2022-09-25T22:59:18.512Z,99691.69
2022-09-25T23:01:53.673Z,99689.75
2022-09-25T23:04:24.404Z,99680.06
2022-09-25T23:06:53.135Z,99688.56
2022-09-25T23:09:25.913Z,99681.56
2022-09-25T23:11:56.307Z,99671.81
2022-09-25T23:14:28.460Z,99673.38
2022-09-25T23:16:57.289Z,99667.94
2022-09-25T23:19:25.429Z,99668.34
2022-09-25T23:21:54.343Z,99678.06
2022-09-25T23:24:22.921Z,99676.53
2022-09-25T23:26:51.387Z,99675.44
2022-09-25T23:29:20.958Z,99668.47
2022-09-25T23:31:50.217Z,99664.56
2022-09-25T23:34:18.932Z,99668.44
2022-09-25T23:36:46.825Z,99670.72
2022-09-25T23:39:20.156Z,99672.28
2022-09-25T23:41:48.633Z,99678.41
2022-09-25T23:44:16.705Z,99667.94
2022-09-25T23:46:44.530Z,99653.16
2022-09-25T23:49:13.557Z,99653.09
2022-09-25T23:51:41.729Z,99655.00
2022-09-25T23:54:10.769Z,99649.50
2022-09-25T23:56:40.780Z,99658.81
2022-09-25T23:59:11.910Z,99661.13
